sensor_id;sensor_type;location;lat;lon;timestamp;P1;durP1;ratioP1;P2;durP2;ratioP2
74660;SDS011;63191;39.566;2.654;2023-03-07T00:00:43;8.30;;;3.30;;
74660;SDS011;63191;39.566;2.654;2023-03-07T00:03:14;7.80;;;3.70;;
74660;SDS011;63191;39.566;2.654;2023-03-07T00:05:42;9.60;;;4.10;;
74660;SDS011;63191;39.566;2.654;2023-03-07T00:08:09;8.20;;;3.60;;
74660;SDS011;63191;39.566;2.654;2023-03-07T00:10:35;8.50;;;3.20;;
74660;SDS011;63191;39.566;2.654;2023-03-07T00:13:02;8.10;;;3.60;;
74660;SDS011;63191;39.566;2.654;2023-03-07T00:15:29;8.60;;;3.20;;
74660;SDS011;63191;39.566;2.654;2023-03-07T00:17:55;7.80;;;3.60;;
74660;SDS011;63191;39.566;2.654;2023-03-07T00:20:21;8.70;;;4.20;;
74660;SDS011;63191;39.566;2.654;2023-03-07T00:22:47;9.60;;;4.80;;
74660;SDS011;63191;39.566;2.654;2023-03-07T00:25:13;9.40;;;4.30;;
74660;SDS011;63191;39.566;2.654;2023-03-07T00:27:40;9.80;;;4.50;;
74660;SDS011;63191;39.566;2.654;2023-03-07T00:30:07;10.10;;;4.40;;
74660;SDS011;63191;39.566;2.654;2023-03-07T00:32:36;10.40;;;4.70;;
74660;SDS011;63191;39.566;2.654;2023-03-07T00:35:02;10.40;;;4.00;;
74660;SDS011;63191;39.566;2.654;2023-03-07T00:37:28;10.90;;;4.10;;
74660;SDS011;63191;39.566;2.654;2023-03-07T00:39:55;9.30;;;3.60;;
74660;SDS011;63191;39.566;2.654;2023-03-07T00:42:21;8.60;;;4.40;;
74660;SDS011;63191;39.566;2.654;2023-03-07T00:44:47;7.20;;;3.10;;
74660;SDS011;63191;39.566;2.654;2023-03-07T00:47:12;7.30;;;3.00;;
74660;SDS011;63191;39.566;2.654;2023-03-07T00:49:38;8.80;;;3.60;;
74660;SDS011;63191;39.566;2.654;2023-03-07T00:52:04;8.40;;;3.40;;
74660;SDS011;63191;39.566;2.654;2023-03-07T00:54:31;8.00;;;3.20;;
74660;SDS011;63191;39.566;2.654;2023-03-07T00:56:57;8.30;;;3.20;;
74660;SDS011;63191;39.566;2.654;2023-03-07T00:59:23;7.50;;;2.70;;
74660;SDS011;63191;39.566;2.654;2023-03-07T01:01:49;7.20;;;2.90;;
74660;SDS011;63191;39.566;2.654;2023-03-07T01:04:14;8.50;;;3.20;;
74660;SDS011;63191;39.566;2.654;2023-03-07T01:06:40;7.10;;;3.10;;
74660;SDS011;63191;39.566;2.654;2023-03-07T01:09:06;7.10;;;2.90;;
74660;SDS011;63191;39.566;2.654;2023-03-07T01:11:33;7.10;;;3.00;;
74660;SDS011;63191;39.566;2.654;2023-03-07T01:14:02;7.10;;;2.90;;
74660;SDS011;63191;39.566;2.654;2023-03-07T01:16:32;7.00;;;2.90;;
74660;SDS011;63191;39.566;2.654;2023-03-07T01:19:03;9.10;;;2.80;;
74660;SDS011;63191;39.566;2.654;2023-03-07T01:21:33;6.20;;;2.40;;
74660;SDS011;63191;39.566;2.654;2023-03-07T01:24:04;6.80;;;2.30;;
74660;SDS011;63191;39.566;2.654;2023-03-07T01:26:32;6.80;;;2.70;;
74660;SDS011;63191;39.566;2.654;2023-03-07T01:29:00;8.20;;;3.00;;
74660;SDS011;63191;39.566;2.654;2023-03-07T01:31:27;6.50;;;2.70;;
74660;SDS011;63191;39.566;2.654;2023-03-07T01:33:57;7.50;;;2.60;;
74660;SDS011;63191;39.566;2.654;2023-03-07T01:36:25;8.00;;;2.70;;
74660;SDS011;63191;39.566;2.654;2023-03-07T01:39:00;7.60;;;3.00;;
74660;SDS011;63191;39.566;2.654;2023-03-07T01:41:31;7.40;;;2.60;;
74660;SDS011;63191;39.566;2.654;2023-03-07T01:44:06;7.10;;;2.80;;
74660;SDS011;63191;39.566;2.654;2023-03-07T01:46:47;7.90;;;3.00;;
74660;SDS011;63191;39.566;2.654;2023-03-07T01:49:32;7.20;;;2.70;;
74660;SDS011;63191;39.566;2.654;2023-03-07T01:52:10;7.60;;;2.90;;
74660;SDS011;63191;39.566;2.654;2023-03-07T01:54:42;7.70;;;3.10;;
74660;SDS011;63191;39.566;2.654;2023-03-07T01:57:15;6.70;;;2.60;;
74660;SDS011;63191;39.566;2.654;2023-03-07T01:59:45;9.50;;;2.70;;
74660;SDS011;63191;39.566;2.654;2023-03-07T02:02:15;7.30;;;3.20;;
74660;SDS011;63191;39.566;2.654;2023-03-07T02:04:47;8.90;;;3.30;;
74660;SDS011;63191;39.566;2.654;2023-03-07T02:07:21;8.40;;;3.00;;
74660;SDS011;63191;39.566;2.654;2023-03-07T02:09:52;8.30;;;3.00;;
74660;SDS011;63191;39.566;2.654;2023-03-07T02:12:18;8.80;;;2.70;;
74660;SDS011;63191;39.566;2.654;2023-03-07T02:14:46;7.60;;;2.40;;
74660;SDS011;63191;39.566;2.654;2023-03-07T02:17:13;7.10;;;2.50;;
74660;SDS011;63191;39.566;2.654;2023-03-07T02:19:53;6.20;;;2.60;;
74660;SDS011;63191;39.566;2.654;2023-03-07T02:22:29;7.20;;;2.30;;
74660;SDS011;63191;39.566;2.654;2023-03-07T02:27:41;6.30;;;2.70;;
74660;SDS011;63191;39.566;2.654;2023-03-07T02:30:08;7.50;;;2.50;;
74660;SDS011;63191;39.566;2.654;2023-03-07T02:32:35;6.20;;;2.30;;
74660;SDS011;63191;39.566;2.654;2023-03-07T02:35:00;7.50;;;2.60;;
74660;SDS011;63191;39.566;2.654;2023-03-07T02:37:32;6.50;;;2.30;;
74660;SDS011;63191;39.566;2.654;2023-03-07T02:40:04;6.00;;;2.40;;
74660;SDS011;63191;39.566;2.654;2023-03-07T02:42:35;6.40;;;2.30;;
74660;SDS011;63191;39.566;2.654;2023-03-07T02:45:06;6.10;;;2.30;;
74660;SDS011;63191;39.566;2.654;2023-03-07T02:47:34;7.90;;;2.50;;
74660;SDS011;63191;39.566;2.654;2023-03-07T02:50:02;7.10;;;1.80;;
74660;SDS011;63191;39.566;2.654;2023-03-07T02:52:29;5.60;;;1.80;;
74660;SDS011;63191;39.566;2.654;2023-03-07T02:54:55;6.60;;;2.00;;
74660;SDS011;63191;39.566;2.654;2023-03-07T02:57:23;6.20;;;1.90;;
74660;SDS011;63191;39.566;2.654;2023-03-07T02:59:49;7.10;;;2.00;;
74660;SDS011;63191;39.566;2.654;2023-03-07T03:02:15;5.10;;;2.00;;
74660;SDS011;63191;39.566;2.654;2023-03-07T03:04:42;5.80;;;2.10;;
74660;SDS011;63191;39.566;2.654;2023-03-07T03:07:09;6.70;;;1.90;;
74660;SDS011;63191;39.566;2.654;2023-03-07T03:09:34;5.90;;;1.80;;
74660;SDS011;63191;39.566;2.654;2023-03-07T03:12:00;5.80;;;1.90;;
74660;SDS011;63191;39.566;2.654;2023-03-07T03:14:26;7.20;;;2.00;;
74660;SDS011;63191;39.566;2.654;2023-03-07T03:16:52;5.30;;;1.70;;
74660;SDS011;63191;39.566;2.654;2023-03-07T03:19:18;7.30;;;1.60;;
74660;SDS011;63191;39.566;2.654;2023-03-07T03:21:44;6.60;;;2.30;;
74660;SDS011;63191;39.566;2.654;2023-03-07T03:24:10;6.30;;;2.00;;
74660;SDS011;63191;39.566;2.654;2023-03-07T03:26:37;6.70;;;1.90;;
74660;SDS011;63191;39.566;2.654;2023-03-07T03:29:03;6.40;;;1.90;;
74660;SDS011;63191;39.566;2.654;2023-03-07T03:31:31;5.50;;;1.80;;
74660;SDS011;63191;39.566;2.654;2023-03-07T03:33:58;6.00;;;1.60;;
74660;SDS011;63191;39.566;2.654;2023-03-07T03:36:25;6.30;;;1.90;;
74660;SDS011;63191;39.566;2.654;2023-03-07T03:38:55;6.30;;;1.60;;
74660;SDS011;63191;39.566;2.654;2023-03-07T03:41:23;5.20;;;1.40;;
74660;SDS011;63191;39.566;2.654;2023-03-07T03:43:50;6.60;;;1.80;;
74660;SDS011;63191;39.566;2.654;2023-03-07T03:46:17;7.60;;;1.70;;
74660;SDS011;63191;39.566;2.654;2023-03-07T03:48:50;6.20;;;2.00;;
74660;SDS011;63191;39.566;2.654;2023-03-07T03:51:18;6.10;;;1.90;;
74660;SDS011;63191;39.566;2.654;2023-03-07T03:53:44;5.60;;;1.90;;
74660;SDS011;63191;39.566;2.654;2023-03-07T03:56:12;5.90;;;1.50;;
74660;SDS011;63191;39.566;2.654;2023-03-07T03:58:40;4.60;;;1.60;;
74660;SDS011;63191;39.566;2.654;2023-03-07T04:01:08;6.60;;;1.70;;
74660;SDS011;63191;39.566;2.654;2023-03-07T04:03:43;5.00;;;1.30;;
74660;SDS011;63191;39.566;2.654;2023-03-07T04:06:26;5.30;;;1.50;;
74660;SDS011;63191;39.566;2.654;2023-03-07T04:08:54;5.00;;;1.60;;
74660;SDS011;63191;39.566;2.654;2023-03-07T04:11:21;5.20;;;1.40;;
74660;SDS011;63191;39.566;2.654;2023-03-07T04:13:48;4.70;;;1.50;;
74660;SDS011;63191;39.566;2.654;2023-03-07T04:16:15;6.00;;;1.80;;
74660;SDS011;63191;39.566;2.654;2023-03-07T04:18:41;5.40;;;1.50;;
74660;SDS011;63191;39.566;2.654;2023-03-07T04:21:08;7.80;;;1.70;;
74660;SDS011;63191;39.566;2.654;2023-03-07T04:23:37;6.40;;;1.90;;
74660;SDS011;63191;39.566;2.654;2023-03-07T04:26:06;5.30;;;1.50;;
74660;SDS011;63191;39.566;2.654;2023-03-07T04:28:35;6.20;;;1.60;;
74660;SDS011;63191;39.566;2.654;2023-03-07T04:31:18;6.10;;;1.50;;
74660;SDS011;63191;39.566;2.654;2023-03-07T04:33:48;4.30;;;1.70;;
74660;SDS011;63191;39.566;2.654;2023-03-07T04:36:16;5.40;;;1.60;;
74660;SDS011;63191;39.566;2.654;2023-03-07T04:38:42;5.60;;;1.60;;
74660;SDS011;63191;39.566;2.654;2023-03-07T04:41:15;6.90;;;1.70;;
74660;SDS011;63191;39.566;2.654;2023-03-07T04:43:43;5.50;;;1.60;;
74660;SDS011;63191;39.566;2.654;2023-03-07T04:46:10;5.70;;;1.70;;
74660;SDS011;63191;39.566;2.654;2023-03-07T04:48:37;5.00;;;1.70;;
74660;SDS011;63191;39.566;2.654;2023-03-07T04:51:04;6.50;;;1.30;;
74660;SDS011;63191;39.566;2.654;2023-03-07T04:53:30;5.30;;;1.50;;
74660;SDS011;63191;39.566;2.654;2023-03-07T04:56:00;5.70;;;1.60;;
74660;SDS011;63191;39.566;2.654;2023-03-07T04:58:29;4.90;;;1.50;;
74660;SDS011;63191;39.566;2.654;2023-03-07T05:00:56;4.40;;;1.20;;
74660;SDS011;63191;39.566;2.654;2023-03-07T05:03:23;4.60;;;1.20;;
74660;SDS011;63191;39.566;2.654;2023-03-07T05:05:51;5.60;;;1.30;;
74660;SDS011;63191;39.566;2.654;2023-03-07T05:08:17;8.50;;;1.40;;
74660;SDS011;63191;39.566;2.654;2023-03-07T05:10:44;6.40;;;1.60;;
74660;SDS011;63191;39.566;2.654;2023-03-07T05:13:11;3.70;;;1.10;;
74660;SDS011;63191;39.566;2.654;2023-03-07T05:15:37;4.40;;;1.30;;
74660;SDS011;63191;39.566;2.654;2023-03-07T05:18:03;4.80;;;1.30;;
74660;SDS011;63191;39.566;2.654;2023-03-07T05:20:31;4.00;;;1.30;;
74660;SDS011;63191;39.566;2.654;2023-03-07T05:22:58;4.70;;;1.30;;
74660;SDS011;63191;39.566;2.654;2023-03-07T05:25:23;6.20;;;1.50;;
74660;SDS011;63191;39.566;2.654;2023-03-07T05:27:49;4.30;;;1.10;;
74660;SDS011;63191;39.566;2.654;2023-03-07T05:30:16;6.50;;;1.50;;
74660;SDS011;63191;39.566;2.654;2023-03-07T05:32:41;5.40;;;1.20;;
74660;SDS011;63191;39.566;2.654;2023-03-07T05:35:09;4.50;;;1.50;;
74660;SDS011;63191;39.566;2.654;2023-03-07T05:37:36;6.00;;;1.40;;
74660;SDS011;63191;39.566;2.654;2023-03-07T05:40:03;4.70;;;1.40;;
74660;SDS011;63191;39.566;2.654;2023-03-07T05:42:34;7.90;;;2.00;;
74660;SDS011;63191;39.566;2.654;2023-03-07T05:44:59;4.90;;;1.60;;
74660;SDS011;63191;39.566;2.654;2023-03-07T05:47:25;7.10;;;1.70;;
74660;SDS011;63191;39.566;2.654;2023-03-07T05:49:51;6.00;;;1.80;;
74660;SDS011;63191;39.566;2.654;2023-03-07T05:52:17;7.90;;;1.80;;
74660;SDS011;63191;39.566;2.654;2023-03-07T05:54:44;6.40;;;1.50;;
74660;SDS011;63191;39.566;2.654;2023-03-07T05:57:10;6.80;;;1.50;;
74660;SDS011;63191;39.566;2.654;2023-03-07T05:59:36;6.20;;;1.60;;
74660;SDS011;63191;39.566;2.654;2023-03-07T06:02:02;6.40;;;1.70;;
74660;SDS011;63191;39.566;2.654;2023-03-07T06:04:27;8.30;;;2.20;;
74660;SDS011;63191;39.566;2.654;2023-03-07T06:06:53;6.20;;;1.50;;
74660;SDS011;63191;39.566;2.654;2023-03-07T06:09:19;6.00;;;1.80;;
74660;SDS011;63191;39.566;2.654;2023-03-07T06:11:46;4.60;;;1.30;;
74660;SDS011;63191;39.566;2.654;2023-03-07T06:14:12;5.70;;;1.80;;
74660;SDS011;63191;39.566;2.654;2023-03-07T06:16:38;6.90;;;1.90;;
74660;SDS011;63191;39.566;2.654;2023-03-07T06:19:03;5.70;;;1.40;;
74660;SDS011;63191;39.566;2.654;2023-03-07T06:21:29;5.60;;;1.30;;
74660;SDS011;63191;39.566;2.654;2023-03-07T06:23:55;5.00;;;1.40;;
74660;SDS011;63191;39.566;2.654;2023-03-07T06:26:21;5.90;;;1.50;;
74660;SDS011;63191;39.566;2.654;2023-03-07T06:28:47;7.70;;;2.00;;
74660;SDS011;63191;39.566;2.654;2023-03-07T06:31:16;6.40;;;1.60;;
74660;SDS011;63191;39.566;2.654;2023-03-07T06:33:44;6.00;;;1.70;;
74660;SDS011;63191;39.566;2.654;2023-03-07T06:36:14;5.90;;;1.70;;
74660;SDS011;63191;39.566;2.654;2023-03-07T06:38:41;7.70;;;2.00;;
74660;SDS011;63191;39.566;2.654;2023-03-07T06:41:08;5.20;;;1.50;;
74660;SDS011;63191;39.566;2.654;2023-03-07T06:43:35;5.40;;;1.90;;
74660;SDS011;63191;39.566;2.654;2023-03-07T06:46:02;5.80;;;1.90;;
74660;SDS011;63191;39.566;2.654;2023-03-07T06:48:28;7.10;;;2.00;;
74660;SDS011;63191;39.566;2.654;2023-03-07T06:50:54;8.00;;;2.30;;
74660;SDS011;63191;39.566;2.654;2023-03-07T06:53:20;8.00;;;2.30;;
74660;SDS011;63191;39.566;2.654;2023-03-07T06:55:50;7.00;;;2.30;;
74660;SDS011;63191;39.566;2.654;2023-03-07T06:58:17;9.50;;;2.40;;
74660;SDS011;63191;39.566;2.654;2023-03-07T07:00:44;8.10;;;2.30;;
74660;SDS011;63191;39.566;2.654;2023-03-07T07:03:15;8.00;;;2.30;;
74660;SDS011;63191;39.566;2.654;2023-03-07T07:05:42;10.30;;;3.00;;
74660;SDS011;63191;39.566;2.654;2023-03-07T07:08:08;6.90;;;2.80;;
74660;SDS011;63191;39.566;2.654;2023-03-07T07:10:35;9.50;;;2.70;;
74660;SDS011;63191;39.566;2.654;2023-03-07T07:13:01;9.80;;;3.10;;
74660;SDS011;63191;39.566;2.654;2023-03-07T07:15:29;8.40;;;2.90;;
74660;SDS011;63191;39.566;2.654;2023-03-07T07:17:56;10.00;;;3.00;;
74660;SDS011;63191;39.566;2.654;2023-03-07T07:20:22;7.80;;;2.90;;
74660;SDS011;63191;39.566;2.654;2023-03-07T07:22:48;6.90;;;3.10;;
74660;SDS011;63191;39.566;2.654;2023-03-07T07:25:15;7.40;;;3.00;;
74660;SDS011;63191;39.566;2.654;2023-03-07T07:27:40;8.30;;;3.40;;
74660;SDS011;63191;39.566;2.654;2023-03-07T07:30:07;8.50;;;3.60;;
74660;SDS011;63191;39.566;2.654;2023-03-07T07:32:33;10.40;;;3.80;;
74660;SDS011;63191;39.566;2.654;2023-03-07T07:34:59;9.50;;;3.20;;
74660;SDS011;63191;39.566;2.654;2023-03-07T07:37:25;10.00;;;3.50;;
74660;SDS011;63191;39.566;2.654;2023-03-07T07:39:51;9.40;;;3.70;;
74660;SDS011;63191;39.566;2.654;2023-03-07T07:42:16;10.20;;;3.30;;
74660;SDS011;63191;39.566;2.654;2023-03-07T07:44:42;10.50;;;3.60;;
74660;SDS011;63191;39.566;2.654;2023-03-07T07:47:08;12.80;;;4.50;;
74660;SDS011;63191;39.566;2.654;2023-03-07T07:49:34;13.40;;;4.20;;
74660;SDS011;63191;39.566;2.654;2023-03-07T07:52:00;11.20;;;4.60;;
74660;SDS011;63191;39.566;2.654;2023-03-07T07:54:26;11.70;;;4.10;;
74660;SDS011;63191;39.566;2.654;2023-03-07T07:56:52;10.20;;;3.50;;
74660;SDS011;63191;39.566;2.654;2023-03-07T07:59:18;19.90;;;9.20;;
74660;SDS011;63191;39.566;2.654;2023-03-07T08:01:44;14.00;;;4.10;;
74660;SDS011;63191;39.566;2.654;2023-03-07T08:04:10;15.10;;;6.50;;
74660;SDS011;63191;39.566;2.654;2023-03-07T08:06:36;11.10;;;4.30;;
74660;SDS011;63191;39.566;2.654;2023-03-07T08:09:02;11.00;;;3.80;;
74660;SDS011;63191;39.566;2.654;2023-03-07T08:11:30;11.20;;;4.00;;
74660;SDS011;63191;39.566;2.654;2023-03-07T08:13:56;15.00;;;6.40;;
74660;SDS011;63191;39.566;2.654;2023-03-07T08:16:22;14.00;;;4.70;;
74660;SDS011;63191;39.566;2.654;2023-03-07T08:18:53;11.70;;;4.40;;
74660;SDS011;63191;39.566;2.654;2023-03-07T08:21:24;14.80;;;5.90;;
74660;SDS011;63191;39.566;2.654;2023-03-07T08:23:50;9.80;;;4.00;;
74660;SDS011;63191;39.566;2.654;2023-03-07T08:26:16;13.30;;;5.40;;
74660;SDS011;63191;39.566;2.654;2023-03-07T08:28:42;10.50;;;4.30;;
74660;SDS011;63191;39.566;2.654;2023-03-07T08:31:20;12.20;;;4.40;;
74660;SDS011;63191;39.566;2.654;2023-03-07T08:33:50;10.60;;;4.30;;
74660;SDS011;63191;39.566;2.654;2023-03-07T08:36:17;10.10;;;4.60;;
74660;SDS011;63191;39.566;2.654;2023-03-07T08:38:47;10.30;;;3.90;;
74660;SDS011;63191;39.566;2.654;2023-03-07T08:41:16;10.00;;;3.70;;
74660;SDS011;63191;39.566;2.654;2023-03-07T08:43:45;16.90;;;4.20;;
74660;SDS011;63191;39.566;2.654;2023-03-07T08:46:11;11.00;;;4.00;;
74660;SDS011;63191;39.566;2.654;2023-03-07T08:48:37;11.10;;;4.70;;
74660;SDS011;63191;39.566;2.654;2023-03-07T08:51:05;15.40;;;5.70;;
74660;SDS011;63191;39.566;2.654;2023-03-07T08:53:33;14.80;;;4.00;;
74660;SDS011;63191;39.566;2.654;2023-03-07T08:55:59;13.40;;;3.90;;
74660;SDS011;63191;39.566;2.654;2023-03-07T08:58:25;12.20;;;3.60;;
74660;SDS011;63191;39.566;2.654;2023-03-07T09:00:51;12.70;;;4.00;;
74660;SDS011;63191;39.566;2.654;2023-03-07T09:03:17;13.60;;;4.80;;
74660;SDS011;63191;39.566;2.654;2023-03-07T09:05:43;12.10;;;3.10;;
74660;SDS011;63191;39.566;2.654;2023-03-07T09:08:09;13.80;;;3.50;;
74660;SDS011;63191;39.566;2.654;2023-03-07T09:10:35;11.60;;;3.40;;
74660;SDS011;63191;39.566;2.654;2023-03-07T09:13:01;9.80;;;2.80;;
74660;SDS011;63191;39.566;2.654;2023-03-07T09:15:27;10.80;;;2.90;;
74660;SDS011;63191;39.566;2.654;2023-03-07T09:17:53;23.10;;;11.90;;
74660;SDS011;63191;39.566;2.654;2023-03-07T09:20:18;10.80;;;4.90;;
74660;SDS011;63191;39.566;2.654;2023-03-07T09:22:44;7.30;;;3.00;;
74660;SDS011;63191;39.566;2.654;2023-03-07T09:25:11;7.90;;;2.70;;
74660;SDS011;63191;39.566;2.654;2023-03-07T09:27:37;10.80;;;4.10;;
74660;SDS011;63191;39.566;2.654;2023-03-07T09:30:03;9.80;;;3.70;;
74660;SDS011;63191;39.566;2.654;2023-03-07T09:32:32;12.30;;;5.50;;
74660;SDS011;63191;39.566;2.654;2023-03-07T09:34:58;14.20;;;4.50;;
74660;SDS011;63191;39.566;2.654;2023-03-07T09:37:24;12.50;;;4.20;;
74660;SDS011;63191;39.566;2.654;2023-03-07T09:39:50;14.00;;;4.00;;
74660;SDS011;63191;39.566;2.654;2023-03-07T09:48:46;8.50;;;3.00;;
74660;SDS011;63191;39.566;2.654;2023-03-07T09:51:38;6.90;;;2.30;;
74660;SDS011;63191;39.566;2.654;2023-03-07T09:54:13;9.70;;;2.90;;
74660;SDS011;63191;39.566;2.654;2023-03-07T09:56:54;10.00;;;3.80;;
74660;SDS011;63191;39.566;2.654;2023-03-07T10:02:03;9.70;;;2.80;;
74660;SDS011;63191;39.566;2.654;2023-03-07T10:04:58;10.70;;;3.40;;
74660;SDS011;63191;39.566;2.654;2023-03-07T10:07:44;10.40;;;2.90;;
74660;SDS011;63191;39.566;2.654;2023-03-07T10:10:21;10.90;;;2.40;;
74660;SDS011;63191;39.566;2.654;2023-03-07T10:27:31;11.40;;;2.30;;
74660;SDS011;63191;39.566;2.654;2023-03-07T10:29:58;7.70;;;1.30;;
74660;SDS011;63191;39.566;2.654;2023-03-07T10:32:46;9.10;;;1.70;;
74660;SDS011;63191;39.566;2.654;2023-03-07T10:37:49;9.60;;;2.30;;
74660;SDS011;63191;39.566;2.654;2023-03-07T10:40:32;9.30;;;1.50;;
74660;SDS011;63191;39.566;2.654;2023-03-07T10:43:00;10.30;;;1.20;;
74660;SDS011;63191;39.566;2.654;2023-03-07T10:45:31;9.30;;;1.30;;
74660;SDS011;63191;39.566;2.654;2023-03-07T10:48:04;7.90;;;1.30;;
74660;SDS011;63191;39.566;2.654;2023-03-07T10:50:51;9.00;;;2.20;;
74660;SDS011;63191;39.566;2.654;2023-03-07T10:53:39;11.30;;;2.20;;
74660;SDS011;63191;39.566;2.654;2023-03-07T10:56:11;9.40;;;2.40;;
74660;SDS011;63191;39.566;2.654;2023-03-07T10:58:37;10.30;;;2.20;;
74660;SDS011;63191;39.566;2.654;2023-03-07T11:06:03;10.60;;;2.10;;
74660;SDS011;63191;39.566;2.654;2023-03-07T11:08:34;11.80;;;3.10;;
74660;SDS011;63191;39.566;2.654;2023-03-07T11:11:03;8.50;;;2.20;;
74660;SDS011;63191;39.566;2.654;2023-03-07T11:13:30;8.70;;;2.20;;
74660;SDS011;63191;39.566;2.654;2023-03-07T11:16:15;10.30;;;2.70;;
74660;SDS011;63191;39.566;2.654;2023-03-07T11:18:45;10.10;;;2.80;;
74660;SDS011;63191;39.566;2.654;2023-03-07T11:21:32;11.20;;;3.00;;
74660;SDS011;63191;39.566;2.654;2023-03-07T11:26:58;10.70;;;3.60;;
74660;SDS011;63191;39.566;2.654;2023-03-07T11:29:25;9.80;;;3.80;;
74660;SDS011;63191;39.566;2.654;2023-03-07T11:32:17;8.50;;;4.10;;
74660;SDS011;63191;39.566;2.654;2023-03-07T11:34:50;8.50;;;4.10;;
74660;SDS011;63191;39.566;2.654;2023-03-07T11:50:24;10.30;;;4.60;;
74660;SDS011;63191;39.566;2.654;2023-03-07T11:53:18;10.30;;;4.40;;
74660;SDS011;63191;39.566;2.654;2023-03-07T11:55:59;11.30;;;4.90;;
74660;SDS011;63191;39.566;2.654;2023-03-07T11:58:49;9.70;;;4.50;;
74660;SDS011;63191;39.566;2.654;2023-03-07T12:02:01;10.30;;;4.70;;
74660;SDS011;63191;39.566;2.654;2023-03-07T12:07:39;10.80;;;5.10;;
74660;SDS011;63191;39.566;2.654;2023-03-07T12:13:30;10.00;;;4.90;;
74660;SDS011;63191;39.566;2.654;2023-03-07T12:31:35;10.70;;;4.10;;
74660;SDS011;63191;39.566;2.654;2023-03-07T12:34:22;10.50;;;4.10;;
74660;SDS011;63191;39.566;2.654;2023-03-07T12:37:05;6.60;;;4.10;;
74660;SDS011;63191;39.566;2.654;2023-03-07T12:42:52;6.40;;;4.70;;
74660;SDS011;63191;39.566;2.654;2023-03-07T12:45:21;7.80;;;4.90;;
74660;SDS011;63191;39.566;2.654;2023-03-07T12:48:07;7.90;;;5.00;;
74660;SDS011;63191;39.566;2.654;2023-03-07T12:54:31;7.80;;;5.50;;
74660;SDS011;63191;39.566;2.654;2023-03-07T12:57:05;6.90;;;5.50;;
74660;SDS011;63191;39.566;2.654;2023-03-07T12:59:39;6.20;;;5.20;;
74660;SDS011;63191;39.566;2.654;2023-03-07T13:02:13;5.70;;;4.90;;
74660;SDS011;63191;39.566;2.654;2023-03-07T13:04:44;6.60;;;6.00;;
74660;SDS011;63191;39.566;2.654;2023-03-07T13:07:11;7.00;;;5.50;;
74660;SDS011;63191;39.566;2.654;2023-03-07T13:09:54;7.00;;;5.60;;
74660;SDS011;63191;39.566;2.654;2023-03-07T13:12:36;7.70;;;5.10;;
74660;SDS011;63191;39.566;2.654;2023-03-07T13:15:45;6.40;;;4.90;;
74660;SDS011;63191;39.566;2.654;2023-03-07T13:18:29;7.60;;;5.30;;
74660;SDS011;63191;39.566;2.654;2023-03-07T13:21:12;7.00;;;5.30;;
74660;SDS011;63191;39.566;2.654;2023-03-07T13:27:26;7.30;;;4.40;;
74660;SDS011;63191;39.566;2.654;2023-03-07T13:30:20;6.10;;;4.10;;
74660;SDS011;63191;39.566;2.654;2023-03-07T13:40:50;6.00;;;3.10;;
74660;SDS011;63191;39.566;2.654;2023-03-07T13:46:02;5.80;;;2.70;;
74660;SDS011;63191;39.566;2.654;2023-03-07T13:59:25;6.70;;;1.60;;
74660;SDS011;63191;39.566;2.654;2023-03-07T14:01:48;5.80;;;1.70;;
74660;SDS011;63191;39.566;2.654;2023-03-07T14:04:24;7.30;;;1.70;;
74660;SDS011;63191;39.566;2.654;2023-03-07T14:07:20;7.90;;;1.40;;
74660;SDS011;63191;39.566;2.654;2023-03-07T14:09:50;6.70;;;1.20;;
74660;SDS011;63191;39.566;2.654;2023-03-07T14:15:51;5.70;;;1.20;;
74660;SDS011;63191;39.566;2.654;2023-03-07T14:24:30;7.90;;;1.10;;
74660;SDS011;63191;39.566;2.654;2023-03-07T14:27:02;6.60;;;0.90;;
74660;SDS011;63191;39.566;2.654;2023-03-07T14:29:29;9.90;;;1.10;;
74660;SDS011;63191;39.566;2.654;2023-03-07T14:31:58;5.50;;;1.00;;
74660;SDS011;63191;39.566;2.654;2023-03-07T14:34:33;6.60;;;1.10;;
74660;SDS011;63191;39.566;2.654;2023-03-07T14:37:11;6.10;;;1.10;;
74660;SDS011;63191;39.566;2.654;2023-03-07T14:45:59;6.80;;;1.20;;
74660;SDS011;63191;39.566;2.654;2023-03-07T14:51:39;7.40;;;1.10;;
74660;SDS011;63191;39.566;2.654;2023-03-07T14:54:13;6.80;;;1.00;;
74660;SDS011;63191;39.566;2.654;2023-03-07T14:56:41;5.60;;;1.10;;
74660;SDS011;63191;39.566;2.654;2023-03-07T14:59:11;5.90;;;1.10;;
74660;SDS011;63191;39.566;2.654;2023-03-07T15:01:39;5.90;;;0.80;;
74660;SDS011;63191;39.566;2.654;2023-03-07T15:04:29;5.70;;;1.00;;
74660;SDS011;63191;39.566;2.654;2023-03-07T15:07:02;4.30;;;0.90;;
74660;SDS011;63191;39.566;2.654;2023-03-07T15:09:30;5.90;;;1.30;;
74660;SDS011;63191;39.566;2.654;2023-03-07T15:12:02;3.40;;;0.70;;
74660;SDS011;63191;39.566;2.654;2023-03-07T15:17:25;4.50;;;0.70;;
74660;SDS011;63191;39.566;2.654;2023-03-07T15:22:36;7.20;;;1.00;;
74660;SDS011;63191;39.566;2.654;2023-03-07T15:25:05;5.80;;;1.00;;
74660;SDS011;63191;39.566;2.654;2023-03-07T15:27:41;8.10;;;0.90;;
74660;SDS011;63191;39.566;2.654;2023-03-07T15:30:21;4.60;;;0.70;;
74660;SDS011;63191;39.566;2.654;2023-03-07T15:33:15;7.10;;;1.00;;
74660;SDS011;63191;39.566;2.654;2023-03-07T15:38:41;4.50;;;0.80;;
74660;SDS011;63191;39.566;2.654;2023-03-07T15:41:30;6.60;;;1.20;;
74660;SDS011;63191;39.566;2.654;2023-03-07T15:46:49;7.00;;;0.90;;
74660;SDS011;63191;39.566;2.654;2023-03-07T15:49:34;6.00;;;1.00;;
74660;SDS011;63191;39.566;2.654;2023-03-07T15:52:31;5.60;;;1.00;;
74660;SDS011;63191;39.566;2.654;2023-03-07T15:55:05;4.20;;;1.00;;
74660;SDS011;63191;39.566;2.654;2023-03-07T15:57:57;5.70;;;1.00;;
74660;SDS011;63191;39.566;2.654;2023-03-07T16:00:34;6.30;;;1.00;;
74660;SDS011;63191;39.566;2.654;2023-03-07T16:03:26;4.70;;;0.80;;
74660;SDS011;63191;39.566;2.654;2023-03-07T16:05:55;5.50;;;0.90;;
74660;SDS011;63191;39.566;2.654;2023-03-07T16:08:23;6.30;;;0.90;;
74660;SDS011;63191;39.566;2.654;2023-03-07T16:10:51;6.80;;;0.90;;
74660;SDS011;63191;39.566;2.654;2023-03-07T16:13:28;6.70;;;0.80;;
74660;SDS011;63191;39.566;2.654;2023-03-07T16:16:01;4.90;;;0.80;;
74660;SDS011;63191;39.566;2.654;2023-03-07T16:18:30;5.00;;;0.80;;
74660;SDS011;63191;39.566;2.654;2023-03-07T16:20:58;5.20;;;1.00;;
74660;SDS011;63191;39.566;2.654;2023-03-07T16:23:24;6.80;;;1.10;;
74660;SDS011;63191;39.566;2.654;2023-03-07T16:25:53;7.90;;;0.60;;
74660;SDS011;63191;39.566;2.654;2023-03-07T16:28:22;6.20;;;0.70;;
74660;SDS011;63191;39.566;2.654;2023-03-07T16:30:48;6.20;;;0.70;;
74660;SDS011;63191;39.566;2.654;2023-03-07T16:33:14;6.20;;;0.70;;
74660;SDS011;63191;39.566;2.654;2023-03-07T16:35:40;5.80;;;1.10;;
74660;SDS011;63191;39.566;2.654;2023-03-07T16:38:06;6.20;;;0.60;;
74660;SDS011;63191;39.566;2.654;2023-03-07T16:40:36;5.90;;;0.80;;
74660;SDS011;63191;39.566;2.654;2023-03-07T16:43:30;5.40;;;0.60;;
74660;SDS011;63191;39.566;2.654;2023-03-07T16:46:03;5.50;;;0.90;;
74660;SDS011;63191;39.566;2.654;2023-03-07T16:48:31;4.20;;;0.60;;
74660;SDS011;63191;39.566;2.654;2023-03-07T16:50:57;6.60;;;0.80;;
74660;SDS011;63191;39.566;2.654;2023-03-07T16:53:23;7.50;;;0.90;;
74660;SDS011;63191;39.566;2.654;2023-03-07T16:55:49;7.10;;;0.90;;
74660;SDS011;63191;39.566;2.654;2023-03-07T16:58:25;4.80;;;0.60;;
74660;SDS011;63191;39.566;2.654;2023-03-07T17:00:53;6.60;;;1.00;;
74660;SDS011;63191;39.566;2.654;2023-03-07T17:03:20;4.30;;;0.50;;
74660;SDS011;63191;39.566;2.654;2023-03-07T17:05:46;7.00;;;0.90;;
74660;SDS011;63191;39.566;2.654;2023-03-07T17:08:12;5.00;;;0.80;;
74660;SDS011;63191;39.566;2.654;2023-03-07T17:10:38;6.20;;;1.00;;
74660;SDS011;63191;39.566;2.654;2023-03-07T17:13:07;6.90;;;0.70;;
74660;SDS011;63191;39.566;2.654;2023-03-07T17:15:36;6.70;;;0.90;;
74660;SDS011;63191;39.566;2.654;2023-03-07T17:18:02;7.90;;;0.80;;